sensor_id;sensor_type;location;lat;lon;timestamp;temperature;humidity
15596;DHT22;7898;48.658;9.068;2023-10-31T00:02:08;10.80;99.90
15596;DHT22;7898;48.658;9.068;2023-10-31T00:04:35;10.80;99.90
15596;DHT22;7898;48.658;9.068;2023-10-31T00:07:02;10.80;99.90
15596;DHT22;7898;48.658;9.068;2023-10-31T00:09:29;10.70;99.90
15596;DHT22;7898;48.658;9.068;2023-10-31T00:11:58;10.70;99.90
15596;DHT22;7898;48.658;9.068;2023-10-31T00:14:27;10.70;99.90
15596;DHT22;7898;48.658;9.068;2023-10-31T00:16:54;10.70;99.90
15596;DHT22;7898;48.658;9.068;2023-10-31T00:19:21;10.70;99.90
15596;DHT22;7898;48.658;9.068;2023-10-31T00:21:48;10.70;99.90
15596;DHT22;7898;48.658;9.068;2023-10-31T00:24:15;10.70;99.90
15596;DHT22;7898;48.658;9.068;2023-10-31T00:26:41;10.70;99.90
15596;DHT22;7898;48.658;9.068;2023-10-31T00:29:10;10.80;99.90
15596;DHT22;7898;48.658;9.068;2023-10-31T00:31:36;10.70;99.90
15596;DHT22;7898;48.658;9.068;2023-10-31T00:34:06;10.70;99.90
15596;DHT22;7898;48.658;9.068;2023-10-31T00:36:33;10.70;99.90
15596;DHT22;7898;48.658;9.068;2023-10-31T00:39:00;10.80;99.90
15596;DHT22;7898;48.658;9.068;2023-10-31T00:41:27;10.70;99.90
15596;DHT22;7898;48.658;9.068;2023-10-31T00:43:53;10.80;99.90
15596;DHT22;7898;48.658;9.068;2023-10-31T00:46:22;10.70;99.90
15596;DHT22;7898;48.658;9.068;2023-10-31T00:48:48;10.70;99.90
15596;DHT22;7898;48.658;9.068;2023-10-31T00:51:15;10.60;99.90
15596;DHT22;7898;48.658;9.068;2023-10-31T00:53:42;10.70;99.90
15596;DHT22;7898;48.658;9.068;2023-10-31T00:56:09;10.60;99.90
15596;DHT22;7898;48.658;9.068;2023-10-31T00:58:36;10.60;99.90
15596;DHT22;7898;48.658;9.068;2023-10-31T01:01:03;10.60;99.90
15596;DHT22;7898;48.658;9.068;2023-10-31T01:03:31;10.50;99.90
15596;DHT22;7898;48.658;9.068;2023-10-31T01:05:58;10.50;99.90
15596;DHT22;7898;48.658;9.068;2023-10-31T01:08:25;10.50;99.90
15596;DHT22;7898;48.658;9.068;2023-10-31T01:10:52;10.40;99.90
15596;DHT22;7898;48.658;9.068;2023-10-31T01:13:19;10.40;99.90
15596;DHT22;7898;48.658;9.068;2023-10-31T01:15:45;10.30;99.90
15596;DHT22;7898;48.658;9.068;2023-10-31T01:18:12;10.30;99.90
15596;DHT22;7898;48.658;9.068;2023-10-31T01:20:40;10.20;99.90
15596;DHT22;7898;48.658;9.068;2023-10-31T01:23:07;10.10;99.90
15596;DHT22;7898;48.658;9.068;2023-10-31T01:25:34;10.10;99.90
15596;DHT22;7898;48.658;9.068;2023-10-31T01:28:01;10.00;99.90
15596;DHT22;7898;48.658;9.068;2023-10-31T01:30:28;9.80;99.90
15596;DHT22;7898;48.658;9.068;2023-10-31T01:32:55;9.80;99.90
15596;DHT22;7898;48.658;9.068;2023-10-31T01:35:21;9.80;99.90
15596;DHT22;7898;48.658;9.068;2023-10-31T01:37:50;9.70;99.90
15596;DHT22;7898;48.658;9.068;2023-10-31T01:40:16;9.80;99.90
15596;DHT22;7898;48.658;9.068;2023-10-31T01:42:43;9.80;99.90
15596;DHT22;7898;48.658;9.068;2023-10-31T01:45:11;9.80;99.90
15596;DHT22;7898;48.658;9.068;2023-10-31T01:47:37;9.70;99.90
15596;DHT22;7898;48.658;9.068;2023-10-31T01:50:07;9.70;99.90
15596;DHT22;7898;48.658;9.068;2023-10-31T01:52:35;9.80;99.90
15596;DHT22;7898;48.658;9.068;2023-10-31T01:55:05;9.80;99.90
15596;DHT22;7898;48.658;9.068;2023-10-31T01:57:32;9.80;99.90
15596;DHT22;7898;48.658;9.068;2023-10-31T01:59:59;9.80;99.90
15596;DHT22;7898;48.658;9.068;2023-10-31T02:02:27;9.70;99.90
15596;DHT22;7898;48.658;9.068;2023-10-31T02:04:54;9.70;99.90
15596;DHT22;7898;48.658;9.068;2023-10-31T02:07:21;9.70;99.90
15596;DHT22;7898;48.658;9.068;2023-10-31T02:09:48;9.70;99.90
15596;DHT22;7898;48.658;9.068;2023-10-31T02:12:34;9.80;99.90
15596;DHT22;7898;48.658;9.068;2023-10-31T02:15:02;9.70;99.90
15596;DHT22;7898;48.658;9.068;2023-10-31T02:17:29;9.70;99.90
15596;DHT22;7898;48.658;9.068;2023-10-31T02:19:56;9.70;99.90
15596;DHT22;7898;48.658;9.068;2023-10-31T02:22:24;9.60;99.90
15596;DHT22;7898;48.658;9.068;2023-10-31T02:24:51;9.60;99.90
15596;DHT22;7898;48.658;9.068;2023-10-31T02:27:18;9.70;99.90
15596;DHT22;7898;48.658;9.068;2023-10-31T02:29:45;9.60;99.90
15596;DHT22;7898;48.658;9.068;2023-10-31T02:32:12;9.60;99.90
15596;DHT22;7898;48.658;9.068;2023-10-31T02:34:39;9.60;99.90
15596;DHT22;7898;48.658;9.068;2023-10-31T02:37:06;9.60;99.90
15596;DHT22;7898;48.658;9.068;2023-10-31T02:39:34;9.60;99.90
15596;DHT22;7898;48.658;9.068;2023-10-31T02:42:01;9.60;99.90
15596;DHT22;7898;48.658;9.068;2023-10-31T02:44:28;9.60;99.90
15596;DHT22;7898;48.658;9.068;2023-10-31T02:46:55;9.60;99.90
15596;DHT22;7898;48.658;9.068;2023-10-31T02:49:22;9.60;99.90
15596;DHT22;7898;48.658;9.068;2023-10-31T02:51:49;9.70;99.90
15596;DHT22;7898;48.658;9.068;2023-10-31T02:54:16;9.70;99.90
15596;DHT22;7898;48.658;9.068;2023-10-31T02:56:44;9.70;99.90
15596;DHT22;7898;48.658;9.068;2023-10-31T02:59:11;9.70;99.90
15596;DHT22;7898;48.658;9.068;2023-10-31T03:01:38;9.80;99.90
15596;DHT22;7898;48.658;9.068;2023-10-31T03:04:05;9.90;99.90
15596;DHT22;7898;48.658;9.068;2023-10-31T03:06:32;9.90;99.90
15596;DHT22;7898;48.658;9.068;2023-10-31T03:08:59;9.90;99.90
15596;DHT22;7898;48.658;9.068;2023-10-31T03:11:26;9.90;99.90
15596;DHT22;7898;48.658;9.068;2023-10-31T03:13:55;9.90;99.90
15596;DHT22;7898;48.658;9.068;2023-10-31T03:16:22;9.90;99.90
15596;DHT22;7898;48.658;9.068;2023-10-31T03:18:49;9.80;99.90
15596;DHT22;7898;48.658;9.068;2023-10-31T03:21:16;9.80;99.90
15596;DHT22;7898;48.658;9.068;2023-10-31T03:23:47;9.80;99.90
15596;DHT22;7898;48.658;9.068;2023-10-31T03:26:14;9.70;99.90
15596;DHT22;7898;48.658;9.068;2023-10-31T03:28:42;9.70;99.90
15596;DHT22;7898;48.658;9.068;2023-10-31T03:31:10;9.60;99.90
15596;DHT22;7898;48.658;9.068;2023-10-31T03:33:37;9.60;99.90
15596;DHT22;7898;48.658;9.068;2023-10-31T03:36:05;9.60;99.90
15596;DHT22;7898;48.658;9.068;2023-10-31T03:38:32;9.50;99.90
15596;DHT22;7898;48.658;9.068;2023-10-31T03:40:59;9.50;99.90
15596;DHT22;7898;48.658;9.068;2023-10-31T03:43:25;9.50;99.90
15596;DHT22;7898;48.658;9.068;2023-10-31T03:45:52;9.40;99.90
15596;DHT22;7898;48.658;9.068;2023-10-31T03:48:21;9.40;99.90
15596;DHT22;7898;48.658;9.068;2023-10-31T03:50:48;9.40;99.90
15596;DHT22;7898;48.658;9.068;2023-10-31T03:53:16;9.40;99.90
15596;DHT22;7898;48.658;9.068;2023-10-31T03:55:43;9.40;99.90
15596;DHT22;7898;48.658;9.068;2023-10-31T03:58:09;9.40;99.90
15596;DHT22;7898;48.658;9.068;2023-10-31T04:00:36;9.30;99.90
15596;DHT22;7898;48.658;9.068;2023-10-31T04:03:03;9.40;99.90
15596;DHT22;7898;48.658;9.068;2023-10-31T04:05:31;9.30;99.90
15596;DHT22;7898;48.658;9.068;2023-10-31T04:07:58;9.30;99.90
15596;DHT22;7898;48.658;9.068;2023-10-31T04:10:26;9.20;99.90
15596;DHT22;7898;48.658;9.068;2023-10-31T04:12:53;9.20;99.90
15596;DHT22;7898;48.658;9.068;2023-10-31T04:15:20;9.10;99.90
15596;DHT22;7898;48.658;9.068;2023-10-31T04:17:47;9.20;99.90
15596;DHT22;7898;48.658;9.068;2023-10-31T04:20:14;9.10;99.90
15596;DHT22;7898;48.658;9.068;2023-10-31T04:22:42;9.20;99.90
15596;DHT22;7898;48.658;9.068;2023-10-31T04:25:09;9.20;99.90
15596;DHT22;7898;48.658;9.068;2023-10-31T04:27:36;9.20;99.90
15596;DHT22;7898;48.658;9.068;2023-10-31T04:30:03;9.10;99.90
15596;DHT22;7898;48.658;9.068;2023-10-31T04:32:30;9.20;99.90
15596;DHT22;7898;48.658;9.068;2023-10-31T04:34:57;9.10;99.90
15596;DHT22;7898;48.658;9.068;2023-10-31T04:37:24;9.10;99.90
15596;DHT22;7898;48.658;9.068;2023-10-31T04:39:53;9.20;99.90
15596;DHT22;7898;48.658;9.068;2023-10-31T04:42:20;9.10;99.90
15596;DHT22;7898;48.658;9.068;2023-10-31T04:44:48;9.10;99.90
15596;DHT22;7898;48.658;9.068;2023-10-31T04:47:15;9.10;99.90
15596;DHT22;7898;48.658;9.068;2023-10-31T04:49:42;9.10;99.90
15596;DHT22;7898;48.658;9.068;2023-10-31T04:52:08;9.10;99.90
15596;DHT22;7898;48.658;9.068;2023-10-31T04:54:35;9.10;99.90
15596;DHT22;7898;48.658;9.068;2023-10-31T04:57:04;9.10;99.90
15596;DHT22;7898;48.658;9.068;2023-10-31T04:59:31;9.10;99.90
15596;DHT22;7898;48.658;9.068;2023-10-31T05:01:58;9.10;99.90
15596;DHT22;7898;48.658;9.068;2023-10-31T05:04:25;9.00;99.90
15596;DHT22;7898;48.658;9.068;2023-10-31T05:06:52;9.00;99.90
15596;DHT22;7898;48.658;9.068;2023-10-31T05:09:19;9.00;99.90
15596;DHT22;7898;48.658;9.068;2023-10-31T05:11:46;8.90;99.90
15596;DHT22;7898;48.658;9.068;2023-10-31T05:14:14;8.90;99.90
15596;DHT22;7898;48.658;9.068;2023-10-31T05:16:42;8.90;99.90
15596;DHT22;7898;48.658;9.068;2023-10-31T05:19:09;8.80;99.90
15596;DHT22;7898;48.658;9.068;2023-10-31T05:21:36;8.70;99.90
15596;DHT22;7898;48.658;9.068;2023-10-31T05:24:03;8.70;99.90
15596;DHT22;7898;48.658;9.068;2023-10-31T05:26:30;8.60;99.90
15596;DHT22;7898;48.658;9.068;2023-10-31T05:28:57;8.70;99.90
15596;DHT22;7898;48.658;9.068;2023-10-31T05:31:26;8.70;99.90
15596;DHT22;7898;48.658;9.068;2023-10-31T05:33:53;8.60;99.90
15596;DHT22;7898;48.658;9.068;2023-10-31T05:36:20;8.70;99.90
15596;DHT22;7898;48.658;9.068;2023-10-31T05:38:47;8.70;99.90
15596;DHT22;7898;48.658;9.068;2023-10-31T05:41:14;8.70;99.90
15596;DHT22;7898;48.658;9.068;2023-10-31T05:43:41;8.70;99.90
15596;DHT22;7898;48.658;9.068;2023-10-31T05:46:08;8.60;99.90
15596;DHT22;7898;48.658;9.068;2023-10-31T05:48:38;8.50;99.90
15596;DHT22;7898;48.658;9.068;2023-10-31T05:51:11;8.50;99.90
15596;DHT22;7898;48.658;9.068;2023-10-31T05:53:40;8.50;99.90
15596;DHT22;7898;48.658;9.068;2023-10-31T05:56:08;8.50;99.90
15596;DHT22;7898;48.658;9.068;2023-10-31T05:58:35;8.50;99.90
15596;DHT22;7898;48.658;9.068;2023-10-31T06:01:02;8.60;99.90
15596;DHT22;7898;48.658;9.068;2023-10-31T06:03:29;8.60;99.90
15596;DHT22;7898;48.658;9.068;2023-10-31T06:05:57;8.60;99.90
15596;DHT22;7898;48.658;9.068;2023-10-31T06:08:24;8.50;99.90
15596;DHT22;7898;48.658;9.068;2023-10-31T06:10:53;8.50;99.90
15596;DHT22;7898;48.658;9.068;2023-10-31T06:13:20;8.50;99.90
15596;DHT22;7898;48.658;9.068;2023-10-31T06:15:47;8.50;99.90
15596;DHT22;7898;48.658;9.068;2023-10-31T06:18:14;8.50;99.90
15596;DHT22;7898;48.658;9.068;2023-10-31T06:20:41;8.50;99.90
15596;DHT22;7898;48.658;9.068;2023-10-31T06:23:09;8.50;99.90
15596;DHT22;7898;48.658;9.068;2023-10-31T06:25:36;8.50;99.90
15596;DHT22;7898;48.658;9.068;2023-10-31T06:28:03;8.50;99.90
15596;DHT22;7898;48.658;9.068;2023-10-31T06:30:30;8.50;99.90
15596;DHT22;7898;48.658;9.068;2023-10-31T06:32:58;8.50;99.90
15596;DHT22;7898;48.658;9.068;2023-10-31T06:35:25;8.50;99.90
15596;DHT22;7898;48.658;9.068;2023-10-31T06:37:55;8.50;99.90
15596;DHT22;7898;48.658;9.068;2023-10-31T06:40:24;8.60;99.90
15596;DHT22;7898;48.658;9.068;2023-10-31T06:42:50;8.60;99.90
15596;DHT22;7898;48.658;9.068;2023-10-31T06:45:17;8.60;99.90
15596;DHT22;7898;48.658;9.068;2023-10-31T06:47:44;8.70;99.90
15596;DHT22;7898;48.658;9.068;2023-10-31T06:50:11;8.70;99.90
15596;DHT22;7898;48.658;9.068;2023-10-31T06:52:38;8.80;99.90
15596;DHT22;7898;48.658;9.068;2023-10-31T06:55:05;8.80;99.90
15596;DHT22;7898;48.658;9.068;2023-10-31T06:57:34;8.80;99.90
15596;DHT22;7898;48.658;9.068;2023-10-31T07:00:00;8.80;99.90
15596;DHT22;7898;48.658;9.068;2023-10-31T07:02:28;8.90;99.90
15596;DHT22;7898;48.658;9.068;2023-10-31T07:04:55;8.90;99.90
15596;DHT22;7898;48.658;9.068;2023-10-31T07:07:22;8.90;99.90
15596;DHT22;7898;48.658;9.068;2023-10-31T07:09:49;9.00;99.90
15596;DHT22;7898;48.658;9.068;2023-10-31T07:12:16;9.00;99.90
15596;DHT22;7898;48.658;9.068;2023-10-31T07:14:45;9.10;99.90
15596;DHT22;7898;48.658;9.068;2023-10-31T07:17:12;9.20;99.90
15596;DHT22;7898;48.658;9.068;2023-10-31T07:19:38;9.20;99.90
15596;DHT22;7898;48.658;9.068;2023-10-31T07:22:05;9.30;99.90
15596;DHT22;7898;48.658;9.068;2023-10-31T07:24:32;9.30;99.90
15596;DHT22;7898;48.658;9.068;2023-10-31T07:27:02;9.40;99.90
15596;DHT22;7898;48.658;9.068;2023-10-31T07:29:29;9.50;99.90
15596;DHT22;7898;48.658;9.068;2023-10-31T07:31:57;9.50;99.90
15596;DHT22;7898;48.658;9.068;2023-10-31T07:34:24;9.50;99.90
15596;DHT22;7898;48.658;9.068;2023-10-31T07:36:51;9.50;99.90
15596;DHT22;7898;48.658;9.068;2023-10-31T07:39:18;9.60;99.90
15596;DHT22;7898;48.658;9.068;2023-10-31T07:41:45;9.60;99.90
15596;DHT22;7898;48.658;9.068;2023-10-31T07:44:12;9.70;99.90
15596;DHT22;7898;48.658;9.068;2023-10-31T07:46:38;9.70;99.90
15596;DHT22;7898;48.658;9.068;2023-10-31T07:49:07;9.80;99.90
15596;DHT22;7898;48.658;9.068;2023-10-31T07:51:34;9.90;99.90
15596;DHT22;7898;48.658;9.068;2023-10-31T07:54:01;10.00;99.90
15596;DHT22;7898;48.658;9.068;2023-10-31T07:56:27;10.10;99.90
15596;DHT22;7898;48.658;9.068;2023-10-31T07:58:55;10.10;99.90
15596;DHT22;7898;48.658;9.068;2023-10-31T08:01:22;10.20;99.90
15596;DHT22;7898;48.658;9.068;2023-10-31T08:03:49;10.30;99.90
15596;DHT22;7898;48.658;9.068;2023-10-31T08:06:18;10.30;99.90
15596;DHT22;7898;48.658;9.068;2023-10-31T08:08:44;10.50;99.90
15596;DHT22;7898;48.658;9.068;2023-10-31T08:11:11;10.50;99.90
15596;DHT22;7898;48.658;9.068;2023-10-31T08:13:38;10.70;99.90
15596;DHT22;7898;48.658;9.068;2023-10-31T08:16:07;10.80;99.90
15596;DHT22;7898;48.658;9.068;2023-10-31T08:18:34;11.00;99.90
15596;DHT22;7898;48.658;9.068;2023-10-31T08:21:03;11.10;99.90
15596;DHT22;7898;48.658;9.068;2023-10-31T08:23:32;11.20;99.90
15596;DHT22;7898;48.658;9.068;2023-10-31T08:26:00;11.40;99.90
15596;DHT22;7898;48.658;9.068;2023-10-31T08:28:27;11.50;99.90
15596;DHT22;7898;48.658;9.068;2023-10-31T08:30:54;11.60;99.90
15596;DHT22;7898;48.658;9.068;2023-10-31T08:33:21;11.50;99.90
15596;DHT22;7898;48.658;9.068;2023-10-31T08:35:48;11.40;99.90
15596;DHT22;7898;48.658;9.068;2023-10-31T08:38:15;11.40;99.90
15596;DHT22;7898;48.658;9.068;2023-10-31T08:40:43;11.30;99.90
15596;DHT22;7898;48.658;9.068;2023-10-31T08:43:10;11.40;99.90
15596;DHT22;7898;48.658;9.068;2023-10-31T08:45:37;11.40;99.90
15596;DHT22;7898;48.658;9.068;2023-10-31T08:48:04;11.60;99.90
15596;DHT22;7898;48.658;9.068;2023-10-31T08:50:31;11.50;99.90
15596;DHT22;7898;48.658;9.068;2023-10-31T08:52:58;11.60;99.90
15596;DHT22;7898;48.658;9.068;2023-10-31T08:55:25;11.60;99.90
15596;DHT22;7898;48.658;9.068;2023-10-31T08:57:53;11.60;99.90
15596;DHT22;7898;48.658;9.068;2023-10-31T09:00:20;11.60;99.90
15596;DHT22;7898;48.658;9.068;2023-10-31T09:02:47;11.60;99.90
15596;DHT22;7898;48.658;9.068;2023-10-31T09:05:14;11.70;99.90
15596;DHT22;7898;48.658;9.068;2023-10-31T09:07:41;11.90;99.90
15596;DHT22;7898;48.658;9.068;2023-10-31T09:10:08;12.20;99.90
15596;DHT22;7898;48.658;9.068;2023-10-31T09:12:35;12.50;99.90
15596;DHT22;7898;48.658;9.068;2023-10-31T09:15:04;12.90;99.90
15596;DHT22;7898;48.658;9.068;2023-10-31T09:17:31;13.10;99.90
15596;DHT22;7898;48.658;9.068;2023-10-31T09:19:58;13.30;99.90
15596;DHT22;7898;48.658;9.068;2023-10-31T09:22:25;13.30;99.90
15596;DHT22;7898;48.658;9.068;2023-10-31T09:24:52;13.30;99.90
15596;DHT22;7898;48.658;9.068;2023-10-31T09:27:19;13.20;99.90
15596;DHT22;7898;48.658;9.068;2023-10-31T09:29:46;13.10;99.90
15596;DHT22;7898;48.658;9.068;2023-10-31T09:32:15;12.90;99.90
15596;DHT22;7898;48.658;9.068;2023-10-31T09:34:42;12.80;99.90
15596;DHT22;7898;48.658;9.068;2023-10-31T09:37:09;12.50;99.90
15596;DHT22;7898;48.658;9.068;2023-10-31T09:39:36;12.40;99.90
15596;DHT22;7898;48.658;9.068;2023-10-31T09:42:03;12.20;99.90
15596;DHT22;7898;48.658;9.068;2023-10-31T09:44:30;12.20;99.90
15596;DHT22;7898;48.658;9.068;2023-10-31T09:46:57;12.10;99.90
15596;DHT22;7898;48.658;9.068;2023-10-31T09:49:26;12.10;99.90
15596;DHT22;7898;48.658;9.068;2023-10-31T09:51:54;12.30;99.90
15596;DHT22;7898;48.658;9.068;2023-10-31T09:54:21;12.40;99.90
15596;DHT22;7898;48.658;9.068;2023-10-31T09:56:49;12.30;99.90
15596;DHT22;7898;48.658;9.068;2023-10-31T09:59:16;12.20;99.90
15596;DHT22;7898;48.658;9.068;2023-10-31T10:01:43;12.10;99.90
15596;DHT22;7898;48.658;9.068;2023-10-31T10:04:10;11.90;99.90
15596;DHT22;7898;48.658;9.068;2023-10-31T10:06:50;11.90;99.90
15596;DHT22;7898;48.658;9.068;2023-10-31T10:09:17;11.80;99.90
15596;DHT22;7898;48.658;9.068;2023-10-31T10:11:44;11.70;99.90
15596;DHT22;7898;48.658;9.068;2023-10-31T10:14:12;11.70;99.90
15596;DHT22;7898;48.658;9.068;2023-10-31T10:16:39;11.70;99.90
15596;DHT22;7898;48.658;9.068;2023-10-31T10:19:16;11.70;99.90
15596;DHT22;7898;48.658;9.068;2023-10-31T10:21:51;11.70;99.90
15596;DHT22;7898;48.658;9.068;2023-10-31T10:24:19;11.70;99.90
15596;DHT22;7898;48.658;9.068;2023-10-31T10:26:47;11.70;99.90
15596;DHT22;7898;48.658;9.068;2023-10-31T10:29:14;11.70;99.90
15596;DHT22;7898;48.658;9.068;2023-10-31T10:31:41;11.70;99.90
15596;DHT22;7898;48.658;9.068;2023-10-31T10:34:08;11.70;99.90
15596;DHT22;7898;48.658;9.068;2023-10-31T10:36:36;11.80;99.90
15596;DHT22;7898;48.658;9.068;2023-10-31T10:39:06;11.80;99.90
15596;DHT22;7898;48.658;9.068;2023-10-31T10:41:35;11.80;99.90
15596;DHT22;7898;48.658;9.068;2023-10-31T10:44:04;11.80;99.90
15596;DHT22;7898;48.658;9.068;2023-10-31T10:46:33;11.80;99.90
15596;DHT22;7898;48.658;9.068;2023-10-31T10:49:05;11.90;99.90
15596;DHT22;7898;48.658;9.068;2023-10-31T10:51:43;12.10;99.90
15596;DHT22;7898;48.658;9.068;2023-10-31T10:54:18;12.20;99.90
15596;DHT22;7898;48.658;9.068;2023-10-31T10:56:53;12.30;99.90
15596;DHT22;7898;48.658;9.068;2023-10-31T10:59:29;12.30;99.90
15596;DHT22;7898;48.658;9.068;2023-10-31T11:02:11;12.40;99.90
15596;DHT22;7898;48.658;9.068;2023-10-31T11:04:42;12.40;99.90
15596;DHT22;7898;48.658;9.068;2023-10-31T11:07:10;12.50;99.90
15596;DHT22;7898;48.658;9.068;2023-10-31T11:09:37;12.60;99.90
15596;DHT22;7898;48.658;9.068;2023-10-31T11:12:06;12.80;99.90
15596;DHT22;7898;48.658;9.068;2023-10-31T11:14:34;12.70;99.90
15596;DHT22;7898;48.658;9.068;2023-10-31T11:17:06;12.90;99.90
15596;DHT22;7898;48.658;9.068;2023-10-31T11:19:39;13.10;99.90
15596;DHT22;7898;48.658;9.068;2023-10-31T11:22:06;13.30;99.90
15596;DHT22;7898;48.658;9.068;2023-10-31T11:24:36;13.40;99.90
15596;DHT22;7898;48.658;9.068;2023-10-31T11:27:05;13.50;99.90
15596;DHT22;7898;48.658;9.068;2023-10-31T11:29:33;13.50;99.90
15596;DHT22;7898;48.658;9.068;2023-10-31T11:32:01;13.70;99.90
15596;DHT22;7898;48.658;9.068;2023-10-31T11:34:29;13.70;99.90
15596;DHT22;7898;48.658;9.068;2023-10-31T11:37:25;13.70;99.90
15596;DHT22;7898;48.658;9.068;2023-10-31T11:40:17;13.70;99.90
15596;DHT22;7898;48.658;9.068;2023-10-31T11:42:47;13.80;99.90
15596;DHT22;7898;48.658;9.068;2023-10-31T11:45:25;13.80;99.90
15596;DHT22;7898;48.658;9.068;2023-10-31T11:47:52;13.60;99.90
15596;DHT22;7898;48.658;9.068;2023-10-31T11:50:19;13.30;99.90
15596;DHT22;7898;48.658;9.068;2023-10-31T11:53:02;13.20;99.90
15596;DHT22;7898;48.658;9.068;2023-10-31T11:55:30;13.10;99.90
15596;DHT22;7898;48.658;9.068;2023-10-31T11:57:59;12.90;99.90
15596;DHT22;7898;48.658;9.068;2023-10-31T12:00:25;12.90;99.90
15596;DHT22;7898;48.658;9.068;2023-10-31T12:02:59;12.90;99.90
15596;DHT22;7898;48.658;9.068;2023-10-31T12:05:27;12.70;99.90
15596;DHT22;7898;48.658;9.068;2023-10-31T12:07:58;12.60;99.90
15596;DHT22;7898;48.658;9.068;2023-10-31T12:10:28;12.70;99.90
15596;DHT22;7898;48.658;9.068;2023-10-31T12:12:57;12.80;99.90
15596;DHT22;7898;48.658;9.068;2023-10-31T12:15:24;12.80;99.90
15596;DHT22;7898;48.658;9.068;2023-10-31T12:17:51;12.90;99.90
15596;DHT22;7898;48.658;9.068;2023-10-31T12:20:18;12.80;99.90
15596;DHT22;7898;48.658;9.068;2023-10-31T12:22:45;12.70;99.90
15596;DHT22;7898;48.658;9.068;2023-10-31T12:25:13;12.70;99.90
15596;DHT22;7898;48.658;9.068;2023-10-31T12:27:44;12.70;99.90
15596;DHT22;7898;48.658;9.068;2023-10-31T12:30:12;12.70;99.90
15596;DHT22;7898;48.658;9.068;2023-10-31T12:32:40;12.60;99.90
15596;DHT22;7898;48.658;9.068;2023-10-31T12:35:09;12.70;99.90
15596;DHT22;7898;48.658;9.068;2023-10-31T12:37:42;12.60;99.90
15596;DHT22;7898;48.658;9.068;2023-10-31T12:40:10;12.60;99.90
15596;DHT22;7898;48.658;9.068;2023-10-31T12:42:39;12.60;99.90
15596;DHT22;7898;48.658;9.068;2023-10-31T12:45:07;12.60;99.90
15596;DHT22;7898;48.658;9.068;2023-10-31T12:47:34;12.70;99.90
15596;DHT22;7898;48.658;9.068;2023-10-31T12:50:08;12.70;99.90
15596;DHT22;7898;48.658;9.068;2023-10-31T12:52:48;12.60;99.90
15596;DHT22;7898;48.658;9.068;2023-10-31T12:55:15;12.60;99.90
15596;DHT22;7898;48.658;9.068;2023-10-31T12:57:44;12.60;99.90
15596;DHT22;7898;48.658;9.068;2023-10-31T13:00:12;12.60;99.90
15596;DHT22;7898;48.658;9.068;2023-10-31T13:02:40;12.60;99.90
15596;DHT22;7898;48.658;9.068;2023-10-31T13:05:11;12.60;99.90
15596;DHT22;7898;48.658;9.068;2023-10-31T13:07:39;12.60;99.90
15596;DHT22;7898;48.658;9.068;2023-10-31T13:10:07;12.60;99.90
15596;DHT22;7898;48.658;9.068;2023-10-31T13:12:35;13.30;99.90
15596;DHT22;7898;48.658;9.068;2023-10-31T13:15:05;12.70;99.90
15596;DHT22;7898;48.658;9.068;2023-10-31T13:17:32;12.70;99.90
15596;DHT22;7898;48.658;9.068;2023-10-31T13:20:02;12.70;99.90
15596;DHT22;7898;48.658;9.068;2023-10-31T13:22:29;12.80;99.90
15596;DHT22;7898;48.658;9.068;2023-10-31T13:24:56;12.80;99.90
15596;DHT22;7898;48.658;9.068;2023-10-31T13:27:23;12.90;99.90
15596;DHT22;7898;48.658;9.068;2023-10-31T13:29:49;13.00;99.90
15596;DHT22;7898;48.658;9.068;2023-10-31T13:32:18;13.00;99.90
15596;DHT22;7898;48.658;9.068;2023-10-31T13:34:45;13.10;99.90
15596;DHT22;7898;48.658;9.068;2023-10-31T13:37:13;13.20;99.90
15596;DHT22;7898;48.658;9.068;2023-10-31T13:39:40;13.40;99.90
15596;DHT22;7898;48.658;9.068;2023-10-31T13:42:07;13.80;99.90
15596;DHT22;7898;48.658;9.068;2023-10-31T13:44:35;14.60;99.90
15596;DHT22;7898;48.658;9.068;2023-10-31T13:47:03;15.30;99.90
15596;DHT22;7898;48.658;9.068;2023-10-31T13:49:31;15.50;99.90
15596;DHT22;7898;48.658;9.068;2023-10-31T13:51:58;15.60;99.90
15596;DHT22;7898;48.658;9.068;2023-10-31T13:54:25;15.30;99.90
15596;DHT22;7898;48.658;9.068;2023-10-31T13:56:53;14.90;99.90
15596;DHT22;7898;48.658;9.068;2023-10-31T13:59:20;14.50;99.90
15596;DHT22;7898;48.658;9.068;2023-10-31T14:01:47;14.20;99.90
15596;DHT22;7898;48.658;9.068;2023-10-31T14:04:14;14.00;99.90
15596;DHT22;7898;48.658;9.068;2023-10-31T14:06:42;13.90;99.90
15596;DHT22;7898;48.658;9.068;2023-10-31T14:09:10;13.70;99.90
15596;DHT22;7898;48.658;9.068;2023-10-31T14:11:38;13.60;99.90
15596;DHT22;7898;48.658;9.068;2023-10-31T14:14:05;13.50;99.90
15596;DHT22;7898;48.658;9.068;2023-10-31T14:16:34;13.40;99.90
15596;DHT22;7898;48.658;9.068;2023-10-31T14:19:01;13.30;99.90
15596;DHT22;7898;48.658;9.068;2023-10-31T14:21:29;13.30;99.90
15596;DHT22;7898;48.658;9.068;2023-10-31T14:23:57;13.20;99.90
15596;DHT22;7898;48.658;9.068;2023-10-31T14:26:24;13.20;99.90
15596;DHT22;7898;48.658;9.068;2023-10-31T14:28:51;13.10;99.90
15596;DHT22;7898;48.658;9.068;2023-10-31T14:31:18;13.00;99.90
15596;DHT22;7898;48.658;9.068;2023-10-31T14:33:46;13.00;99.90
15596;DHT22;7898;48.658;9.068;2023-10-31T14:36:13;12.90;99.90
15596;DHT22;7898;48.658;9.068;2023-10-31T14:38:40;12.80;99.90
15596;DHT22;7898;48.658;9.068;2023-10-31T14:41:09;12.70;99.90
15596;DHT22;7898;48.658;9.068;2023-10-31T14:43:36;12.70;99.90
15596;DHT22;7898;48.658;9.068;2023-10-31T14:46:03;12.70;99.90
15596;DHT22;7898;48.658;9.068;2023-10-31T14:48:32;12.70;99.90
15596;DHT22;7898;48.658;9.068;2023-10-31T14:50:59;12.60;99.90
15596;DHT22;7898;48.658;9.068;2023-10-31T14:53:26;12.60;99.90
15596;DHT22;7898;48.658;9.068;2023-10-31T14:55:53;12.50;99.90
15596;DHT22;7898;48.658;9.068;2023-10-31T14:58:22;12.50;99.90
15596;DHT22;7898;48.658;9.068;2023-10-31T15:00:49;12.40;99.90
15596;DHT22;7898;48.658;9.068;2023-10-31T15:03:16;12.30;99.90
15596;DHT22;7898;48.658;9.068;2023-10-31T15:05:43;12.30;99.90
15596;DHT22;7898;48.658;9.068;2023-10-31T15:08:10;12.20;99.90
15596;DHT22;7898;48.658;9.068;2023-10-31T15:10:37;12.20;99.90
15596;DHT22;7898;48.658;9.068;2023-10-31T15:13:04;12.20;99.90
15596;DHT22;7898;48.658;9.068;2023-10-31T15:15:32;12.10;99.90
15596;DHT22;7898;48.658;9.068;2023-10-31T15:17:59;12.10;99.90
15596;DHT22;7898;48.658;9.068;2023-10-31T15:20:27;12.00;99.90
15596;DHT22;7898;48.658;9.068;2023-10-31T15:22:53;12.60;99.90
15596;DHT22;7898;48.658;9.068;2023-10-31T15:25:20;12.00;99.90
15596;DHT22;7898;48.658;9.068;2023-10-31T15:27:47;11.90;99.90
15596;DHT22;7898;48.658;9.068;2023-10-31T15:30:14;11.90;99.90
15596;DHT22;7898;48.658;9.068;2023-10-31T15:32:42;11.80;99.90
15596;DHT22;7898;48.658;9.068;2023-10-31T15:35:09;11.70;99.90
15596;DHT22;7898;48.658;9.068;2023-10-31T15:37:36;11.60;99.90
15596;DHT22;7898;48.658;9.068;2023-10-31T15:40:04;11.50;99.90
15596;DHT22;7898;48.658;9.068;2023-10-31T15:42:31;11.40;99.90
15596;DHT22;7898;48.658;9.068;2023-10-31T15:44:58;11.40;99.90
15596;DHT22;7898;48.658;9.068;2023-10-31T15:47:26;11.30;99.90
15596;DHT22;7898;48.658;9.068;2023-10-31T15:49:54;11.30;99.90
15596;DHT22;7898;48.658;9.068;2023-10-31T15:52:21;11.30;99.90
15596;DHT22;7898;48.658;9.068;2023-10-31T15:54:48;11.30;99.90
15596;DHT22;7898;48.658;9.068;2023-10-31T15:57:15;11.20;99.90